createdAt,value
2022-09-27T00:02:18.353Z,98207.54
2022-09-27T00:05:20.635Z,98208.39
2022-09-27T00:08:22.467Z,98207.09
2022-09-27T00:11:32.439Z,98208.06
2022-09-27T00:14:34.329Z,98206.17
2022-09-27T00:17:37.993Z,98208.21
2022-09-27T00:20:40.459Z,98210.55
2022-09-27T00:23:42.765Z,98201.55
2022-09-27T00:26:45.142Z,98196.02
2022-09-27T00:29:47.950Z,98191.90
2022-09-27T00:32:49.798Z,98190.30
2022-09-27T00:35:51.912Z,98183.78
2022-09-27T00:38:54.336Z,98181.61
2022-09-27T00:41:56.502Z,98176.80
2022-09-27T00:45:05.479Z,98170.55
2022-09-27T00:48:07.408Z,98168.22
2022-09-27T00:51:09.942Z,98160.23
2022-09-27T00:54:13.530Z,98163.29
2022-09-27T00:57:15.362Z,98168.20
2022-09-27T01:00:18.057Z,98170.88
2022-09-27T01:03:45.383Z,98171.88
2022-09-27T01:06:47.151Z,98163.88
2022-09-27T01:09:49.310Z,98158.23
2022-09-27T01:13:02.759Z,98161.01
2022-09-27T01:16:20.523Z,98159.08
2022-09-27T01:19:44.473Z,98149.87
2022-09-27T01:23:08.338Z,98142.67
2022-09-27T01:26:14.587Z,98133.50
2022-09-27T01:29:41.259Z,98130.46
2022-09-27T01:33:14.350Z,98127.92
2022-09-27T01:36:18.223Z,98122.91
2022-09-27T01:39:41.306Z,98114.42
2022-09-27T01:42:50.486Z,98116.80
2022-09-27T01:45:56.673Z,98114.61
2022-09-27T01:49:00.857Z,98111.18
2022-09-27T01:52:04.719Z,98106.05
2022-09-27T01:55:08.669Z,98104.84
2022-09-27T01:58:15.138Z,98111.04
2022-09-27T02:01:18.521Z,98107.76
2022-09-27T02:04:24.955Z,98103.88
2022-09-27T02:07:35.446Z,98106.91
2022-09-27T02:10:42.290Z,98104.45
2022-09-27T02:14:05.650Z,98101.70
2022-09-27T02:17:23.945Z,98103.67
2022-09-27T02:20:26.304Z,98112.13
2022-09-27T02:23:44.202Z,98107.93
2022-09-27T02:26:47.745Z,98097.70
2022-09-27T02:30:00.963Z,98093.91
2022-09-27T02:33:03.299Z,98093.75
2022-09-27T02:36:05.481Z,98089.00
2022-09-27T02:39:07.459Z,98087.75
2022-09-27T02:42:09.359Z,98080.45
2022-09-27T02:45:13.922Z,98081.77
2022-09-27T02:48:23.463Z,98079.64
2022-09-27T02:51:39.751Z,98076.80
2022-09-27T02:55:10.655Z,98073.80
2022-09-27T02:58:31.329Z,98070.79
2022-09-27T03:01:45.383Z,98067.41
2022-09-27T03:05:00.869Z,98064.20
2022-09-27T03:08:04.168Z,98059.29
2022-09-27T03:11:06.051Z,98063.16
2022-09-27T03:14:10.876Z,98062.60
2022-09-27T03:17:13.102Z,98057.14
2022-09-27T03:20:15.113Z,98054.71
2022-09-27T03:23:16.908Z,98056.95
2022-09-27T03:26:18.859Z,98061.97
2022-09-27T03:29:20.771Z,98059.63
2022-09-27T03:32:22.619Z,98053.27
2022-09-27T03:35:24.487Z,98047.08
2022-09-27T03:38:26.331Z,98048.71
2022-09-27T03:41:28.091Z,98047.02
2022-09-27T03:44:29.729Z,98044.38
2022-09-27T03:47:31.590Z,98039.88
2022-09-27T03:50:33.355Z,98034.47
2022-09-27T03:53:35.900Z,98039.32
2022-09-27T03:56:37.725Z,98048.48
2022-09-27T03:59:39.595Z,98052.19
2022-09-27T04:02:42.619Z,98047.80
2022-09-27T04:05:44.479Z,98047.30
2022-09-27T04:08:47.687Z,98039.55
2022-09-27T04:11:49.542Z,98034.71
2022-09-27T04:14:51.549Z,98029.11
2022-09-27T04:17:53.424Z,98029.48
2022-09-27T04:20:56.317Z,98023.60
2022-09-27T04:23:58.040Z,98028.81
2022-09-27T04:26:59.785Z,98026.39
2022-09-27T04:30:01.604Z,98024.66
2022-09-27T04:33:03.479Z,98032.78
2022-09-27T04:36:24.788Z,98033.20
2022-09-27T04:39:26.774Z,98032.61
2022-09-27T04:42:28.889Z,98034.00
2022-09-27T04:45:30.926Z,98032.45
2022-09-27T04:48:33.046Z,98025.02
2022-09-27T04:51:34.721Z,98022.30
2022-09-27T04:54:36.704Z,98012.28
2022-09-27T04:57:38.353Z,98015.77
2022-09-27T05:00:43.027Z,98017.20
2022-09-27T05:03:45.201Z,98018.64
2022-09-27T05:06:46.956Z,98019.92
2022-09-27T05:09:49.056Z,98011.27
2022-09-27T05:12:50.932Z,98013.54
2022-09-27T05:15:53.146Z,98019.14
2022-09-27T05:18:55.215Z,98018.61
2022-09-27T05:21:57.019Z,98018.98
2022-09-27T05:24:58.815Z,98014.14
2022-09-27T05:28:00.742Z,98005.38
2022-09-27T05:31:03.278Z,97997.64
2022-09-27T05:34:05.884Z,97989.78
2022-09-27T05:37:07.770Z,97989.77
2022-09-27T05:40:29.431Z,97979.02
2022-09-27T05:43:31.815Z,97976.58
2022-09-27T05:46:33.728Z,97975.77
2022-09-27T05:49:35.712Z,97975.16
2022-09-27T05:52:37.440Z,97976.50
2022-09-27T05:55:39.742Z,97972.13
2022-09-27T05:58:41.571Z,97972.67
2022-09-27T06:01:43.941Z,97968.60
2022-09-27T06:04:45.822Z,97961.46
2022-09-27T06:07:49.947Z,97953.14
2022-09-27T06:11:01.472Z,97948.95
2022-09-27T06:14:03.710Z,97951.67
2022-09-27T06:17:05.612Z,97954.09
2022-09-27T06:20:09.123Z,97962.52
2022-09-27T06:23:17.554Z,97971.59
2022-09-27T06:26:20.527Z,97977.02
2022-09-27T06:29:22.367Z,97973.54
2022-09-27T06:32:24.489Z,97971.36
2022-09-27T06:35:27.026Z,97973.05
2022-09-27T06:38:29.077Z,97973.25
2022-09-27T06:41:31.045Z,97975.64
2022-09-27T06:44:33.162Z,97982.30
2022-09-27T06:47:38.324Z,97983.84
2022-09-27T06:50:44.309Z,97986.20
2022-09-27T06:53:46.061Z,97984.38
2022-09-27T06:57:07.699Z,97979.36
2022-09-27T07:00:26.703Z,97970.12
2022-09-27T07:03:35.562Z,97972.48
2022-09-27T07:06:38.502Z,97973.64
2022-09-27T07:09:51.737Z,97970.23
2022-09-27T07:12:53.736Z,97969.20
2022-09-27T07:15:55.703Z,97967.11
2022-09-27T07:19:00.760Z,97964.11
2022-09-27T07:22:03.107Z,97964.06
2022-09-27T07:25:05.195Z,97959.35
2022-09-27T07:28:10.498Z,97962.48
2022-09-27T07:31:13.157Z,97961.09
2022-09-27T07:34:18.387Z,97957.87
2022-09-27T07:37:20.183Z,97959.39
2022-09-27T07:40:23.399Z,97959.58
2022-09-27T07:43:25.462Z,97956.34
2022-09-27T07:46:31.041Z,97959.28
2022-09-27T07:49:32.766Z,97963.45
2022-09-27T07:52:45.421Z,97960.27
2022-09-27T07:55:54.129Z,97965.45
2022-09-27T07:58:56.201Z,97960.41
2022-09-27T08:01:58.150Z,97959.50
2022-09-27T08:05:00.472Z,97964.54
2022-09-27T08:08:03.557Z,97959.84
2022-09-27T08:11:15.320Z,97961.47
2022-09-27T08:14:18.095Z,97952.70
2022-09-27T08:17:20.025Z,97943.73
2022-09-27T08:20:21.996Z,97942.38
2022-09-27T08:23:24.828Z,97937.35
2022-09-27T08:26:28.669Z,97937.06
2022-09-27T08:29:31.207Z,97933.92
2022-09-27T08:32:33.981Z,97932.69
2022-09-27T08:35:35.905Z,97930.30
2022-09-27T08:38:38.217Z,97930.21
2022-09-27T08:41:47.934Z,97930.59
2022-09-27T08:44:52.750Z,97931.90
2022-09-27T08:47:58.317Z,97930.63
2022-09-27T08:51:02.602Z,97929.77
2022-09-27T08:54:08.463Z,97928.69
2022-09-27T08:57:12.890Z,97926.71
2022-09-27T09:00:15.370Z,97923.35
2022-09-27T09:03:19.483Z,97920.91
2022-09-27T09:06:27.007Z,97913.47
2022-09-27T09:09:49.080Z,97910.23
2022-09-27T09:12:59.231Z,97913.88
2022-09-27T09:16:16.145Z,97910.55
2022-09-27T09:19:39.566Z,97911.14
2022-09-27T09:22:56.662Z,97904.55
2022-09-27T09:26:04.709Z,97897.15
2022-09-27T09:29:21.948Z,97893.27
2022-09-27T09:32:45.756Z,97888.25
2022-09-27T09:36:14.043Z,97884.38
2022-09-27T09:39:35.567Z,97875.55
2022-09-27T09:43:00.669Z,97858.39
2022-09-27T09:46:21.120Z,97854.90
2022-09-27T09:49:48.426Z,97845.61
2022-09-27T09:52:55.163Z,97844.22
2022-09-27T09:56:00.951Z,97839.38
2022-09-27T09:59:06.973Z,97831.04
2022-09-27T10:02:26.003Z,97825.35
2022-09-27T10:05:28.697Z,97819.92
2022-09-27T10:08:30.890Z,97813.20
2022-09-27T10:11:44.100Z,97810.70
2022-09-27T10:14:47.639Z,97805.66
2022-09-27T10:17:58.232Z,97802.66
2022-09-27T10:21:02.863Z,97794.61
2022-09-27T10:24:17.783Z,97790.63
2022-09-27T10:27:20.440Z,97783.00
2022-09-27T10:30:29.966Z,97784.72
2022-09-27T10:33:33.007Z,97776.08
2022-09-27T10:36:35.987Z,97773.04
2022-09-27T10:39:38.828Z,97772.81
2022-09-27T10:42:40.547Z,97768.08
2022-09-27T10:45:42.342Z,97763.98
2022-09-27T10:48:44.811Z,97761.73
2022-09-27T10:51:50.728Z,97759.64
2022-09-27T10:54:55.248Z,97762.98
2022-09-27T10:57:57.022Z,97765.35
2022-09-27T11:01:12.709Z,97765.14
2022-09-27T11:04:29.667Z,97754.60
2022-09-27T11:07:32.030Z,97752.69
2022-09-27T11:10:37.568Z,97751.48
2022-09-27T11:13:40.905Z,97749.21
2022-09-27T11:17:16.308Z,97738.20
2022-09-27T11:20:38.754Z,97729.93
2022-09-27T11:24:09.613Z,97721.81
2022-09-27T11:27:26.559Z,97718.58
2022-09-27T11:30:53.146Z,97708.84
2022-09-27T11:34:22.054Z,97709.63
2022-09-27T11:37:32.326Z,97713.64
2022-09-27T11:40:57.824Z,97717.61
2022-09-27T11:44:18.028Z,97711.19
2022-09-27T11:47:47.376Z,97698.70
2022-09-27T11:51:18.801Z,97699.09
2022-09-27T11:54:43.880Z,97699.01
2022-09-27T11:58:28.663Z,97693.53
2022-09-27T12:01:49.065Z,97691.55
2022-09-27T12:04:56.895Z,97693.80
2022-09-27T12:08:07.726Z,97691.13
2022-09-27T12:11:09.430Z,97688.15
2022-09-27T12:14:29.813Z,97685.80
2022-09-27T12:17:36.122Z,97695.36
2022-09-27T12:20:38.261Z,97687.17
2022-09-27T12:23:41.675Z,97690.71
2022-09-27T12:26:44.553Z,97686.12
2022-09-27T12:29:47.402Z,97679.63
2022-09-27T12:32:57.845Z,97675.45
2022-09-27T12:36:04.833Z,97670.95
2022-09-27T12:39:21.952Z,97666.52
2022-09-27T12:42:50.420Z,97667.50
2022-09-27T12:46:00.986Z,97665.26
2022-09-27T12:49:39.442Z,97663.70
2022-09-27T12:52:47.631Z,97656.21
2022-09-27T12:56:24.039Z,97653.10
2022-09-27T12:59:53.901Z,97644.27
2022-09-27T13:03:15.383Z,97642.44
2022-09-27T13:06:39.135Z,97633.02
2022-09-27T13:09:59.712Z,97636.49
2022-09-27T13:13:01.920Z,97630.20
2022-09-27T13:16:04.589Z,97626.55
2022-09-27T13:19:06.423Z,97619.70
2022-09-27T13:22:36.893Z,97618.10
2022-09-27T13:25:55.491Z,97612.70
2022-09-27T13:29:02.301Z,97613.17
2022-09-27T13:32:14.177Z,97609.77
2022-09-27T13:35:24.830Z,97608.23
2022-09-27T13:38:26.651Z,97604.98
2022-09-27T13:41:53.576Z,97604.41
2022-09-27T13:45:15.586Z,97605.21
2022-09-27T13:48:27.182Z,97606.88
2022-09-27T13:51:53.388Z,97605.52
2022-09-27T13:54:59.405Z,97604.73
2022-09-27T13:58:05.369Z,97609.59
2022-09-27T14:01:19.286Z,97607.42
2022-09-27T14:04:25.507Z,97607.02
2022-09-27T14:07:44.035Z,97608.38
2022-09-27T14:10:45.838Z,97607.05
2022-09-27T14:13:48.703Z,97606.49
2022-09-27T14:16:51.163Z,97603.88
2022-09-27T14:19:54.468Z,97596.14
2022-09-27T14:22:56.194Z,97597.18
2022-09-27T14:25:58.830Z,97598.92
2022-09-27T14:29:00.516Z,97597.67
2022-09-27T14:32:09.320Z,97599.57
2022-09-27T14:35:33.455Z,97601.60
2022-09-27T14:38:39.245Z,97598.20
2022-09-27T14:41:41.327Z,97594.64
2022-09-27T14:44:46.683Z,97594.91
2022-09-27T14:47:50.523Z,97594.06
2022-09-27T14:51:19.448Z,97592.52
2022-09-27T14:54:25.333Z,97591.38
2022-09-27T14:57:29.440Z,97592.02
2022-09-27T15:00:36.853Z,97585.66
2022-09-27T15:03:44.587Z,97577.76
2022-09-27T15:06:47.329Z,97580.52
2022-09-27T15:09:51.115Z,97574.72
2022-09-27T15:13:00.346Z,97574.08
2022-09-27T15:16:02.586Z,97576.39
2022-09-27T15:19:27.026Z,97576.88
2022-09-27T15:22:45.767Z,97577.20
2022-09-27T15:26:01.162Z,97577.36
2022-09-27T15:29:03.517Z,97573.75
2022-09-27T15:32:08.697Z,97575.55
2022-09-27T15:35:16.009Z,97574.65
2022-09-27T15:38:35.630Z,97575.02
2022-09-27T15:41:59.893Z,97578.39
2022-09-27T15:45:01.861Z,97582.23
2022-09-27T15:48:14.331Z,97580.07
2022-09-27T15:51:42.017Z,97580.89
2022-09-27T15:54:43.914Z,97584.17
2022-09-27T15:57:50.535Z,97589.68
2022-09-27T16:00:55.781Z,97589.98
2022-09-27T16:04:00.745Z,97590.86
2022-09-27T16:07:04.551Z,97596.11
2022-09-27T16:10:21.601Z,97605.09
2022-09-27T16:13:31.834Z,97627.77
2022-09-27T16:16:35.101Z,97637.02
2022-09-27T16:19:36.912Z,97648.52
2022-09-27T16:22:38.583Z,97670.99
2022-09-27T16:25:40.611Z,97670.06
2022-09-27T16:28:42.362Z,97674.80
2022-09-27T16:31:44.411Z,97684.70
2022-09-27T16:34:46.381Z,97694.55
2022-09-27T16:37:48.186Z,97695.47
2022-09-27T16:40:50.141Z,97698.23
2022-09-27T16:43:51.905Z,97700.14
2022-09-27T16:46:53.574Z,97704.69
2022-09-27T16:50:14.253Z,97707.26
2022-09-27T16:53:16.062Z,97707.14
2022-09-27T16:56:18.155Z,97711.02
2022-09-27T16:59:20.532Z,97705.83
2022-09-27T17:02:24.138Z,97707.15
2022-09-27T17:05:26.246Z,97699.53
2022-09-27T17:08:28.109Z,97699.00
2022-09-27T17:11:30.513Z,97704.15
2022-09-27T17:14:32.479Z,97709.84
2022-09-27T17:17:34.265Z,97710.71
2022-09-27T17:20:36.123Z,97709.02
2022-09-27T17:23:38.033Z,97713.41
2022-09-27T17:26:39.851Z,97710.57
2022-09-27T17:29:41.567Z,97712.45
2022-09-27T17:32:43.219Z,97710.32
2022-09-27T17:35:47.871Z,97716.33
2022-09-27T17:38:50.700Z,97718.85
2022-09-27T17:41:52.679Z,97719.63
2022-09-27T17:44:55.523Z,97728.88
2022-09-27T17:48:15.957Z,97736.70
2022-09-27T17:51:17.755Z,97737.44
2022-09-27T17:54:21.831Z,97742.54
2022-09-27T17:57:23.846Z,97743.39
2022-09-27T18:00:25.617Z,97748.02
2022-09-27T18:03:27.257Z,97749.61
2022-09-27T18:06:29.413Z,97754.91
2022-09-27T18:09:31.206Z,97752.34
2022-09-27T18:12:33.100Z,97763.36
2022-09-27T18:15:37.267Z,97765.75
2022-09-27T18:18:40.925Z,97771.98
2022-09-27T18:21:43.064Z,97776.63
2022-09-27T18:24:45.182Z,97779.78
2022-09-27T18:27:50.902Z,97776.59
2022-09-27T18:31:04.796Z,97777.65
2022-09-27T18:34:06.930Z,97782.74
2022-09-27T18:37:08.595Z,97785.15
2022-09-27T18:40:10.327Z,97786.66
2022-09-27T18:43:12.386Z,97790.08
2022-09-27T18:46:35.176Z,97791.86
2022-09-27T18:49:37.736Z,97794.37
2022-09-27T18:52:39.553Z,97796.55
2022-09-27T18:55:41.628Z,97798.85
2022-09-27T18:58:44.591Z,97804.66
2022-09-27T19:01:46.646Z,97810.73
2022-09-27T19:04:48.517Z,97818.45
2022-09-27T19:07:50.634Z,97825.39
2022-09-27T19:10:52.763Z,97828.55
2022-09-27T19:13:56.693Z,97828.81
2022-09-27T19:16:58.409Z,97836.23
2022-09-27T19:20:00.122Z,97835.74
2022-09-27T19:23:02.120Z,97834.61
2022-09-27T19:26:05.357Z,97836.63
2022-09-27T19:29:07.094Z,97836.54
2022-09-27T19:32:08.878Z,97838.38
2022-09-27T19:35:11.853Z,97833.98
2022-09-27T19:38:13.795Z,97829.34
2022-09-27T19:41:16.816Z,97824.11
2022-09-27T19:44:18.997Z,97826.29
2022-09-27T19:47:20.809Z,97826.13
2022-09-27T19:50:23.871Z,97821.65
2022-09-27T19:53:31.160Z,97820.16
2022-09-27T19:56:34.239Z,97821.21
2022-09-27T19:59:39.381Z,97822.52
2022-09-27T20:02:43.249Z,97818.23
2022-09-27T20:05:52.426Z,97816.77
2022-09-27T20:08:54.290Z,97815.36
2022-09-27T20:11:56.017Z,97816.96
2022-09-27T20:14:57.747Z,97816.73
2022-09-27T20:17:59.502Z,97816.45
2022-09-27T20:21:02.323Z,97812.83
2022-09-27T20:24:07.530Z,97808.68
2022-09-27T20:27:09.675Z,97804.55
2022-09-27T20:30:11.826Z,97806.22
2022-09-27T20:33:32.264Z,97811.34
2022-09-27T20:36:38.085Z,97808.40
2022-09-27T20:39:39.947Z,97813.39
2022-09-27T20:42:41.615Z,97811.04
2022-09-27T20:45:44.450Z,97808.56
2022-09-27T20:48:50.176Z,97804.71
2022-09-27T20:51:51.906Z,97807.91
2022-09-27T20:54:53.604Z,97814.38
2022-09-27T20:57:57.648Z,97815.78
2022-09-27T21:01:06.852Z,97818.10
2022-09-27T21:04:09.644Z,97816.47
2022-09-27T21:07:11.390Z,97817.36
2022-09-27T21:10:13.070Z,97823.18
2022-09-27T21:13:15.835Z,97829.35
2022-09-27T21:16:20.188Z,97830.23
2022-09-27T21:19:22.109Z,97829.21
2022-09-27T21:22:23.897Z,97827.91
2022-09-27T21:25:25.634Z,97831.25
2022-09-27T21:28:31.993Z,97829.60
2022-09-27T21:31:36.357Z,97831.09
2022-09-27T21:34:38.038Z,97831.48
2022-09-27T21:37:39.993Z,97832.48
2022-09-27T21:40:41.764Z,97832.50
2022-09-27T21:43:45.082Z,97830.61
2022-09-27T21:46:46.842Z,97825.52
2022-09-27T21:49:48.524Z,97823.63
2022-09-27T21:52:50.266Z,97827.98
2022-09-27T21:55:55.901Z,97831.73
2022-09-27T21:58:58.051Z,97820.74
2022-09-27T22:01:59.959Z,97815.18
2022-09-27T22:05:01.839Z,97812.95
2022-09-27T22:08:03.676Z,97815.02
2022-09-27T22:11:05.735Z,97813.95
2022-09-27T22:14:07.989Z,97816.91
2022-09-27T22:17:09.779Z,97814.38
2022-09-27T22:20:11.589Z,97807.18
2022-09-27T22:23:13.482Z,97806.73
2022-09-27T22:26:20.830Z,97806.03
2022-09-27T22:29:22.536Z,97809.09
2022-09-27T22:32:24.284Z,97802.48
2022-09-27T22:35:26.623Z,97801.84
2022-09-27T22:38:28.445Z,97805.84
2022-09-27T22:41:30.793Z,97806.79
2022-09-27T22:44:34.332Z,97810.46
2022-09-27T22:47:36.180Z,97813.75
2022-09-27T22:50:39.744Z,97809.60
2022-09-27T22:53:41.435Z,97800.95
2022-09-27T22:56:43.117Z,97800.73
2022-09-27T22:59:46.061Z,97804.42
2022-09-27T23:02:47.793Z,97803.71
2022-09-27T23:06:09.229Z,97799.40
2022-09-27T23:09:11.520Z,97799.58
2022-09-27T23:12:13.800Z,97796.08
2022-09-27T23:15:15.670Z,97789.36
2022-09-27T23:18:17.320Z,97792.30
2022-09-27T23:21:19.413Z,97792.51
2022-09-27T23:24:21.363Z,97791.95
2022-09-27T23:27:41.778Z,97792.64
2022-09-27T23:30:43.496Z,97798.73
2022-09-27T23:33:47.678Z,97795.89
2022-09-27T23:36:49.778Z,97788.39
2022-09-27T23:39:51.398Z,97790.77
2022-09-27T23:42:53.144Z,97795.60
2022-09-27T23:45:56.332Z,97802.45
2022-09-27T23:48:58.979Z,97798.41
2022-09-27T23:52:01.357Z,97803.56
2022-09-27T23:55:03.175Z,97800.75
2022-09-27T23:58:04.893Z,97800.52
